Time;durP1;ratioP1;P1;durP2;ratioP2;P2;SDS_P1;SDS_P2;PMS_P1;PMS_P2;Temp;Humidity;BMP_temperature;BMP_pressure;BME280_temperature;BME280_humidity;BME280_pressure;Samples;Min_cycle;Max_cycle;Signal;HPM_P1;HPM_P2
2022/06/17 00:00:46;;;;;;;4.60;1.77;;;17.60;1.00;;;;;;5062221;28;20555;-76
2022/06/17 00:03:13;;;;;;;6.00;2.10;;;17.60;1.00;;;;;;5061330;28;20482;-75
2022/06/17 00:05:40;;;;;;;4.40;1.73;;;17.60;1.00;;;;;;5061865;28;20541;-75
2022/06/17 00:08:16;;;;;;;6.83;2.47;;;17.60;1.00;;;;;;5060759;28;20478;-76
2022/06/17 00:10:43;;;;;;;6.30;2.37;;;17.50;1.00;;;;;;5054252;28;20465;-74
2022/06/17 00:13:13;;;;;;;8.50;2.43;;;17.50;1.00;;;;;;5060086;28;20495;-75
2022/06/17 00:15:40;;;;;;;7.33;2.07;;;17.50;1.00;;;;;;5060025;28;20439;-74
2022/06/17 00:18:07;;;;;;;5.17;2.17;;;17.40;1.00;;;;;;5062244;28;20460;-76
2022/06/17 00:20:34;;;;;;;4.50;1.97;;;17.40;1.00;;;;;;5060643;28;20546;-75
2022/06/17 00:23:02;;;;;;;5.60;2.20;;;17.30;1.00;;;;;;5061431;28;20423;-74
2022/06/17 00:25:33;;;;;;;5.60;2.33;;;17.30;1.00;;;;;;5060364;28;20460;-75
2022/06/17 00:28:01;;;;;;;5.70;2.40;;;17.30;1.00;;;;;;5065448;28;20467;-74
2022/06/17 00:30:31;;;;;;;5.60;2.20;;;17.30;1.00;;;;;;5058104;28;20456;-74
2022/06/17 00:33:00;;;;;;;5.40;2.40;;;17.20;1.00;;;;;;5060102;28;20469;-76
2022/06/17 00:35:33;;;;;;;5.57;2.10;;;17.20;1.00;;;;;;5062109;28;20535;-74
2022/06/17 00:38:01;;;;;;;5.60;2.70;;;17.20;1.00;;;;;;5058030;28;20960;-75
2022/06/17 00:40:29;;;;;;;5.50;2.27;;;17.20;1.00;;;;;;5062544;28;21876;-74
2022/06/17 00:43:01;;;;;;;5.80;2.20;;;17.20;1.00;;;;;;5061196;28;20484;-75
2022/06/17 00:45:32;;;;;;;5.63;2.20;;;17.20;1.00;;;;;;5058018;28;20891;-75
2022/06/17 00:48:04;;;;;;;5.43;2.10;;;17.20;1.00;;;;;;5057348;28;20593;-75
2022/06/17 00:50:37;;;;;;;9.30;2.30;;;17.30;1.00;;;;;;5058427;28;20450;-76
2022/06/17 00:53:14;;;;;;;6.83;2.27;;;17.30;1.00;;;;;;5061597;28;20458;-75
2022/06/17 00:55:44;;;;;;;7.70;2.63;;;17.40;1.00;;;;;;5057667;28;20471;-75
2022/06/17 00:58:18;;;;;;;6.77;2.20;;;17.40;1.00;;;;;;5060314;28;20550;-76
2022/06/17 01:00:46;;;;;;;5.97;2.43;;;17.40;1.00;;;;;;5062125;28;20459;-76
2022/06/17 01:03:19;;;;;;;5.97;2.50;;;17.50;1.00;;;;;;5062340;28;20915;-75
2022/06/17 01:05:50;;;;;;;5.77;2.83;;;17.50;1.00;;;;;;5055726;28;20467;-75
2022/06/17 01:11:11;;;;;;;7.50;2.40;;;17.50;1.00;;;;;;5059262;28;20948;-74
2022/06/17 01:13:40;;;;;;;4.90;2.33;;;17.40;1.00;;;;;;5061686;28;20463;-75
2022/06/17 01:16:08;;;;;;;5.70;2.40;;;17.50;1.00;;;;;;5058961;28;20603;-74
2022/06/17 01:18:39;;;;;;;5.40;2.37;;;17.50;1.00;;;;;;5054562;28;21420;-74
2022/06/17 01:21:26;;;;;;;8.17;2.60;;;17.50;1.00;;;;;;5059020;28;20448;-76
2022/06/17 01:23:55;;;;;;;5.67;2.47;;;17.40;1.00;;;;;;5060914;28;20872;-76
2022/06/17 01:26:22;;;;;;;5.80;2.50;;;17.40;1.00;;;;;;5060632;28;20462;-77
2022/06/17 01:28:49;;;;;;;7.73;2.93;;;17.40;1.00;;;;;;5057930;28;22211;-75
2022/06/17 01:31:17;;;;;;;6.83;2.63;;;17.40;1.00;;;;;;5061038;28;20459;-75
2022/06/17 01:33:44;;;;;;;7.63;3.73;;;17.40;1.00;;;;;;5060919;28;20470;-74
2022/06/17 01:36:15;;;;;;;7.03;2.80;;;17.40;1.00;;;;;;5060823;28;20463;-75
2022/06/17 01:38:45;;;;;;;5.93;2.90;;;17.30;1.00;;;;;;5059773;28;20472;-74
2022/06/17 01:41:15;;;;;;;7.63;3.10;;;17.30;1.00;;;;;;5059590;28;20450;-75
2022/06/17 01:43:47;;;;;;;6.70;2.73;;;17.30;1.00;;;;;;5055863;28;20989;-75
2022/06/17 01:46:16;;;;;;;6.00;2.37;;;17.30;1.00;;;;;;5050037;28;20457;-74
2022/06/17 01:48:50;;;;;;;8.67;3.80;;;17.20;1.00;;;;;;5058986;28;20499;-75
2022/06/17 01:51:22;;;;;;;7.97;3.23;;;17.30;1.00;;;;;;5058591;28;20470;-75
2022/06/17 01:53:53;;;;;;;6.20;2.40;;;17.20;1.00;;;;;;5060543;28;20451;-75
2022/06/17 01:56:23;;;;;;;11.03;2.73;;;17.20;1.00;;;;;;5054165;28;20464;-75
2022/06/17 01:58:56;;;;;;;7.50;3.00;;;17.10;1.00;;;;;;5062281;28;21390;-74
2022/06/17 02:01:26;;;;;;;5.50;2.70;;;17.10;1.00;;;;;;5058084;28;20463;-77
2022/06/17 02:03:57;;;;;;;18.37;14.50;;;17.00;1.00;;;;;;5055326;28;20472;-76
2022/06/17 02:06:30;;;;;;;4.97;2.40;;;17.00;1.00;;;;;;5058921;28;20463;-76
2022/06/17 02:08:57;;;;;;;6.53;2.60;;;17.00;1.00;;;;;;5056727;28;20471;-77
2022/06/17 02:11:26;;;;;;;5.10;2.00;;;16.90;1.00;;;;;;5058437;28;20450;-76
2022/06/17 02:13:53;;;;;;;5.70;2.57;;;16.90;1.00;;;;;;5045202;28;20460;-76
2022/06/17 02:16:20;;;;;;;8.87;2.90;;;16.90;1.00;;;;;;5059790;28;20847;-76
2022/06/17 02:18:48;;;;;;;7.40;3.10;;;16.80;1.00;;;;;;5057920;28;20775;-77
2022/06/17 02:21:20;;;;;;;7.97;3.20;;;16.80;1.00;;;;;;5055743;28;20455;-74
2022/06/17 02:23:47;;;;;;;7.83;2.90;;;16.80;1.00;;;;;;5058507;28;20447;-75
2022/06/17 02:26:15;;;;;;;7.00;3.00;;;16.80;1.00;;;;;;5052577;28;20460;-76
2022/06/17 02:28:45;;;;;;;7.40;3.00;;;16.80;1.00;;;;;;5056132;28;20482;-76
2022/06/17 02:31:15;;;;;;;6.93;3.73;;;16.70;1.00;;;;;;5058192;28;20450;-77
2022/06/17 02:33:48;;;;;;;8.07;3.83;;;16.70;1.00;;;;;;5060005;28;20574;-76
2022/06/17 02:36:20;;;;;;;8.53;4.03;;;16.60;1.00;;;;;;5060773;28;20475;-76
2022/06/17 02:38:47;;;;;;;8.17;3.20;;;16.60;1.00;;;;;;5057839;28;20467;-76
2022/06/17 02:41:19;;;;;;;6.27;2.90;;;16.60;1.00;;;;;;5056611;28;20463;-75
2022/06/17 02:43:50;;;;;;;8.10;3.10;;;16.60;1.00;;;;;;5050989;28;20579;-75
2022/06/17 02:46:21;;;;;;;7.30;3.20;;;16.60;1.00;;;;;;5053651;28;20985;-75
2022/06/17 02:48:51;;;;;;;8.90;2.80;;;16.60;1.00;;;;;;5058450;28;20459;-74
2022/06/17 02:51:18;;;;;;;8.27;3.20;;;16.60;1.00;;;;;;5056667;28;20471;-74
2022/06/17 02:53:46;;;;;;;7.03;3.30;;;16.50;1.00;;;;;;5058149;28;20479;-75
2022/06/17 02:56:18;;;;;;;7.87;3.20;;;16.60;1.00;;;;;;5056326;28;20463;-75
2022/06/17 02:58:53;;;;;;;7.87;3.23;;;16.50;1.00;;;;;;5054350;28;22028;-77
2022/06/17 03:01:22;;;;;;;8.37;4.37;;;16.50;1.00;;;;;;5055060;28;20455;-75
2022/06/17 03:03:50;;;;;;;7.00;3.30;;;16.50;1.00;;;;;;5061947;28;20455;-75
2022/06/17 03:06:20;;;;;;;6.90;3.20;;;16.50;1.00;;;;;;5065672;28;20460;-75
2022/06/17 03:08:51;;;;;;;9.40;4.00;;;16.50;1.00;;;;;;5062532;28;20448;-74
2022/06/17 03:11:19;;;;;;;7.07;3.33;;;16.40;1.00;;;;;;5059726;28;20546;-76
2022/06/17 03:13:52;;;;;;;9.10;3.40;;;16.40;1.00;;;;;;5057637;28;20472;-76
2022/06/17 03:16:20;;;;;;;7.57;3.50;;;16.40;1.00;;;;;;5059864;28;20466;-76
2022/06/17 03:18:49;;;;;;;8.53;3.27;;;16.40;1.00;;;;;;5059927;28;20458;-76
2022/06/17 03:21:20;;;;;;;9.13;3.30;;;16.40;1.00;;;;;;5059933;28;20823;-77
2022/06/17 03:23:53;;;;;;;6.43;3.03;;;16.40;1.00;;;;;;5062106;28;20469;-76
2022/06/17 03:26:25;;;;;;;12.30;7.83;;;16.30;1.00;;;;;;5059183;28;20464;-76
2022/06/17 03:28:54;;;;;;;8.40;3.97;;;16.30;1.00;;;;;;5060783;28;20479;-76
2022/06/17 03:31:25;;;;;;;9.73;4.20;;;16.30;1.00;;;;;;5060391;28;20467;-76
2022/06/17 03:33:56;;;;;;;8.23;3.63;;;16.30;1.00;;;;;;5061926;28;20460;-76
2022/06/17 03:36:28;;;;;;;11.20;4.10;;;16.30;1.00;;;;;;5061973;28;21082;-75
2022/06/17 03:38:58;;;;;;;9.17;3.43;;;16.30;1.00;;;;;;5061979;28;20471;-75
2022/06/17 03:41:28;;;;;;;8.00;3.03;;;16.30;1.00;;;;;;5060579;28;20452;-76
2022/06/17 03:44:02;;;;;;;7.87;3.70;;;16.30;1.00;;;;;;5065198;28;21054;-76
2022/06/17 03:46:33;;;;;;;12.80;4.80;;;16.30;1.00;;;;;;5059563;28;20464;-76
2022/06/17 03:49:05;;;;;;;11.50;4.37;;;16.40;1.00;;;;;;5062936;28;20470;-77
2022/06/17 03:51:34;;;;;;;10.33;3.93;;;16.40;1.00;;;;;;5061985;28;20479;-76
2022/06/17 03:54:01;;;;;;;9.80;3.93;;;16.40;1.00;;;;;;5066594;28;20467;-76
2022/06/17 03:56:32;;;;;;;10.33;4.27;;;16.40;1.00;;;;;;5059794;28;20474;-76
2022/06/17 03:59:04;;;;;;;9.27;4.40;;;16.40;1.00;;;;;;5063252;28;20567;-76
2022/06/17 04:01:36;;;;;;;12.20;5.30;;;16.40;1.00;;;;;;5059302;28;20459;-76
2022/06/17 04:04:11;;;;;;;11.10;4.90;;;16.40;1.00;;;;;;5051999;28;20442;-76
2022/06/17 04:06:41;;;;;;;10.03;5.13;;;16.40;1.00;;;;;;5060509;28;20466;-77
2022/06/17 04:09:15;;;;;;;8.53;4.43;;;16.40;1.00;;;;;;5061731;28;21285;-76
2022/06/17 04:11:45;;;;;;;9.33;4.10;;;16.50;1.00;;;;;;5058308;28;20487;-76
2022/06/17 04:14:20;;;;;;;7.80;4.20;;;16.50;1.00;;;;;;5061970;28;20850;-76
2022/06/17 04:16:54;;;;;;;8.30;4.50;;;16.50;1.00;;;;;;5061511;28;21899;-75
2022/06/17 04:19:23;;;;;;;9.30;4.60;;;16.50;1.00;;;;;;5062760;28;20476;-75
2022/06/17 04:21:50;;;;;;;10.13;4.03;;;16.50;1.00;;;;;;5060069;28;21282;-76
2022/06/17 04:24:19;;;;;;;9.63;5.13;;;16.60;1.00;;;;;;5060163;28;20455;-76
2022/06/17 04:26:50;;;;;;;8.40;4.57;;;16.60;1.00;;;;;;5061800;28;20875;-75
2022/06/17 04:29:22;;;;;;;8.10;4.67;;;16.70;1.00;;;;;;5062609;28;20959;-75
2022/06/17 04:31:57;;;;;;;8.53;4.70;;;16.70;1.00;;;;;;5057627;28;20449;-74
2022/06/17 04:34:24;;;;;;;8.20;4.07;;;16.80;1.00;;;;;;5058974;28;20462;-75
2022/06/17 04:36:54;;;;;;;9.40;4.80;;;16.80;1.00;;;;;;5062893;28;20535;-76
2022/06/17 04:39:25;;;;;;;9.77;5.23;;;16.80;1.00;;;;;;5058167;28;20578;-76
2022/06/17 04:41:55;;;;;;;10.30;4.40;;;16.80;1.00;;;;;;5059707;28;20724;-76
2022/06/17 04:44:24;;;;;;;10.50;4.40;;;16.80;1.00;;;;;;5056284;28;20459;-75
2022/06/17 04:46:55;;;;;;;10.23;4.93;;;16.80;1.00;;;;;;5063174;28;20547;-74
2022/06/17 04:49:25;;;;;;;11.07;4.00;;;16.80;1.00;;;;;;5058602;28;20621;-76
2022/06/17 04:51:56;;;;;;;10.50;5.80;;;16.80;1.00;;;;;;5061152;28;20478;-76
2022/06/17 04:54:24;;;;;;;8.50;4.77;;;16.80;1.00;;;;;;5063299;28;20467;-76
2022/06/17 04:56:52;;;;;;;7.93;4.20;;;16.80;1.00;;;;;;5059283;28;20443;-76
2022/06/17 04:59:32;;;;;;;8.80;4.20;;;16.80;1.00;;;;;;5062693;28;20937;-76
2022/06/17 05:02:00;;;;;;;8.97;4.37;;;16.80;1.00;;;;;;5057710;28;20467;-76
2022/06/17 05:04:28;;;;;;;9.80;4.30;;;16.90;1.00;;;;;;5061035;28;20459;-76
2022/06/17 05:06:55;;;;;;;9.70;4.20;;;16.90;1.00;;;;;;5061656;28;20901;-76
2022/06/17 05:09:26;;;;;;;9.03;4.70;;;16.90;1.00;;;;;;5057134;28;20482;-75
2022/06/17 05:11:59;;;;;;;9.60;4.27;;;17.00;1.00;;;;;;5053826;28;21006;-74
2022/06/17 05:14:37;;;;;;;14.97;5.20;;;17.00;1.00;;;;;;5060018;28;20463;-74
2022/06/17 05:17:04;;;;;;;10.53;5.17;;;17.00;1.00;;;;;;5055439;28;20487;-74
2022/06/17 05:19:32;;;;;;;12.30;4.50;;;17.10;1.00;;;;;;5056601;28;21415;-76
2022/06/17 05:21:59;;;;;;;11.03;4.80;;;17.10;1.00;;;;;;5055660;28;20494;-76
2022/06/17 05:24:29;;;;;;;7.40;4.47;;;17.10;1.00;;;;;;5059324;28;20555;-76
2022/06/17 05:26:57;;;;;;;9.37;4.63;;;17.20;1.00;;;;;;5050766;28;20579;-75
2022/06/17 05:29:25;;;;;;;10.57;5.10;;;17.30;1.00;;;;;;5056141;28;20443;-76
2022/06/17 05:31:53;;;;;;;8.50;4.50;;;17.40;1.00;;;;;;5057386;28;20539;-78
2022/06/17 05:34:20;;;;;;;10.03;4.53;;;17.40;1.00;;;;;;5060251;28;20475;-76
2022/06/17 05:36:47;;;;;;;13.10;5.03;;;17.50;1.00;;;;;;5058008;28;20474;-76
2022/06/17 05:39:14;;;;;;;11.53;5.90;;;17.60;1.00;;;;;;5055130;28;20516;-76
2022/06/17 05:41:41;;;;;;;7.90;4.47;;;17.70;1.00;;;;;;5057181;28;20498;-77
2022/06/17 05:44:08;;;;;;;12.90;5.93;;;17.80;1.00;;;;;;5061034;28;20466;-75
2022/06/17 05:46:35;;;;;;;9.77;4.13;;;17.90;1.00;;;;;;5059614;28;20907;-76
2022/06/17 05:49:04;;;;;;;9.40;4.67;;;18.00;1.00;;;;;;5064618;28;20493;-78
2022/06/17 05:51:31;;;;;;;13.50;5.67;;;18.10;1.00;;;;;;5062311;28;20931;-77
2022/06/17 05:53:58;;;;;;;9.25;5.22;;;18.20;1.00;;;;;;5061022;28;20526;-78
2022/06/17 05:56:25;;;;;;;14.17;5.20;;;18.30;1.00;;;;;;5066435;28;20232;-76
2022/06/17 05:58:53;;;;;;;10.20;5.73;;;18.40;1.00;;;;;;5060127;28;20513;-76
2022/06/17 06:01:19;;;;;;;10.53;5.70;;;18.50;1.00;;;;;;5057957;28;20535;-75
2022/06/17 06:03:46;;;;;;;11.70;5.27;;;18.70;1.00;;;;;;5061366;28;20459;-76
2022/06/17 06:06:15;;;;;;;10.30;4.37;;;18.70;1.00;;;;;;5063362;28;20467;-75
2022/06/17 06:08:42;;;;;;;11.63;5.33;;;18.80;1.00;;;;;;5052317;28;20479;-77
2022/06/17 06:11:09;;;;;;;9.20;5.53;;;18.90;1.00;;;;;;5060580;28;20476;-76
2022/06/17 06:13:36;;;;;;;11.67;5.03;;;18.90;1.00;;;;;;5057273;28;22092;-75
2022/06/17 06:16:04;;;;;;;9.33;5.20;;;19.00;1.00;;;;;;5048904;28;20459;-76
2022/06/17 06:18:33;;;;;;;9.17;5.10;;;19.10;1.00;;;;;;5057010;28;20519;-75
2022/06/17 06:21:04;;;;;;;7.80;4.73;;;19.10;1.00;;;;;;5058686;28;20453;-76
2022/06/17 06:23:34;;;;;;;9.30;4.67;;;19.20;1.00;;;;;;5057860;28;20459;-75
2022/06/17 06:26:01;;;;;;;12.10;5.30;;;19.20;1.00;;;;;;5062263;28;20487;-77
2022/06/17 06:28:29;;;;;;;9.83;5.30;;;19.20;1.00;;;;;;5062912;28;20555;-77
2022/06/17 06:30:58;;;;;;;12.43;6.03;;;19.30;1.00;;;;;;5057309;28;20503;-77
2022/06/17 06:33:25;;;;;;;8.53;4.90;;;19.30;1.00;;;;;;5061058;28;20974;-76
2022/06/17 06:35:52;;;;;;;8.23;4.60;;;19.40;1.00;;;;;;5057392;28;21176;-76
2022/06/17 06:38:19;;;;;;;6.30;4.03;;;19.40;1.00;;;;;;5066584;28;20601;-76
2022/06/17 06:40:48;;;;;;;8.20;4.70;;;19.40;1.00;;;;;;5063127;28;20479;-76
2022/06/17 06:43:17;;;;;;;11.47;4.50;;;19.50;1.00;;;;;;5062875;28;20900;-76
2022/06/17 06:45:46;;;;;;;10.30;4.30;;;19.60;1.00;;;;;;5066860;28;20898;-81
2022/06/17 06:48:15;;;;;;;8.83;4.37;;;19.60;1.00;;;;;;5063681;28;20469;-75
2022/06/17 06:50:44;;;;;;;9.67;5.10;;;19.80;1.00;;;;;;5062383;28;20450;-77
2022/06/17 06:53:13;;;;;;;7.40;4.60;;;19.80;1.00;;;;;;5059596;28;20478;-79
2022/06/17 06:55:40;;;;;;;6.00;3.80;;;19.90;1.00;;;;;;5067256;28;20517;-77
2022/06/17 06:58:12;;;;;;;8.47;4.13;;;19.80;1.00;;;;;;5060052;28;20488;-79
2022/06/17 07:00:41;;;;;;;9.63;3.57;;;19.80;1.00;;;;;;5062764;28;20482;-78
2022/06/17 07:03:09;;;;;;;9.10;4.40;;;19.70;1.00;;;;;;5062019;28;20903;-77
2022/06/17 07:05:38;;;;;;;6.63;3.80;;;19.70;1.00;;;;;;5060586;28;20486;-77
2022/06/17 07:08:07;;;;;;;7.73;5.00;;;19.70;1.00;;;;;;5066673;28;20563;-78
2022/06/17 07:10:36;;;;;;;6.93;3.90;;;19.80;1.00;;;;;;5062972;28;20473;-78
2022/06/17 07:13:05;;;;;;;6.90;3.80;;;19.90;1.00;;;;;;5063628;28;20860;-76
2022/06/17 07:15:34;;;;;;;9.53;4.50;;;20.00;1.00;;;;;;5076071;28;20489;-78
2022/06/17 07:18:05;;;;;;;8.20;4.10;;;20.00;1.00;;;;;;5062354;28;21041;-77
2022/06/17 07:20:38;;;;;;;7.43;4.60;;;20.10;1.00;;;;;;5061630;28;20487;-77
2022/06/17 07:23:05;;;;;;;7.43;4.00;;;20.20;1.00;;;;;;5052738;28;21396;-78
2022/06/17 07:25:33;;;;;;;6.90;3.70;;;20.30;1.00;;;;;;5058077;28;20467;-76
2022/06/17 07:28:00;;;;;;;7.97;5.40;;;20.30;1.00;;;;;;5059104;28;20616;-75
2022/06/17 07:30:28;;;;;;;6.97;4.20;;;20.30;1.00;;;;;;5058190;28;20444;-76
2022/06/17 07:32:58;;;;;;;6.73;3.77;;;20.30;1.00;;;;;;5058844;28;20459;-76
2022/06/17 07:35:26;;;;;;;9.60;4.37;;;20.40;1.00;;;;;;5060339;28;20463;-75
2022/06/17 07:40:37;;;;;;;7.33;3.83;;;20.60;1.00;;;;;;5058145;28;20467;-76
2022/06/17 07:43:04;;;;;;;7.00;4.00;;;20.60;1.00;;;;;;5059218;28;20561;-76
2022/06/17 07:45:33;;;;;;;5.67;3.37;;;20.60;1.00;;;;;;5058745;28;20817;-77
2022/06/17 07:48:04;;;;;;;7.27;3.50;;;20.60;1.00;;;;;;5055404;28;20502;-79
2022/06/17 07:50:34;;;;;;;6.90;3.53;;;20.70;1.00;;;;;;5059046;28;20918;-76
2022/06/17 07:53:01;;;;;;;7.30;3.80;;;20.80;1.00;;;;;;5059861;28;20947;-77
2022/06/17 07:55:28;;;;;;;10.00;4.13;;;20.80;1.00;;;;;;5060239;28;21085;-77
2022/06/17 07:57:56;;;;;;;8.70;3.50;;;21.00;1.00;;;;;;5057126;28;20443;-79
2022/06/17 08:00:32;;;;;;;5.20;2.77;;;21.10;1.00;;;;;;5016736;28;1136787;-76
2022/06/17 08:03:05;;;;;;;8.57;3.97;;;21.10;1.00;;;;;;5055465;28;20469;-76
2022/06/17 08:05:34;;;;;;;8.30;3.73;;;21.20;1.00;;;;;;5062355;28;20454;-77
2022/06/17 08:08:07;;;;;;;7.63;3.57;;;21.20;1.00;;;;;;5061956;28;20443;-78
2022/06/17 08:10:35;;;;;;;8.37;3.70;;;21.30;1.00;;;;;;5062614;28;20473;-78
2022/06/17 08:13:02;;;;;;;9.90;3.60;;;21.40;1.00;;;;;;5063376;28;20487;-77
2022/06/17 08:15:30;;;;;;;6.20;3.20;;;21.50;1.00;;;;;;5056110;28;20584;-80
2022/06/17 08:17:57;;;;;;;5.70;3.70;;;21.60;1.00;;;;;;5058138;28;20471;-77
2022/06/17 08:20:30;;;;;;;5.60;2.93;;;21.70;1.00;;;;;;5059765;28;20448;-76
2022/06/17 08:22:57;;;;;;;6.70;3.57;;;21.70;1.00;;;;;;5059918;28;20501;-77
2022/06/17 08:25:25;;;;;;;5.90;2.90;;;21.70;1.00;;;;;;5059765;28;20484;-76
2022/06/17 08:27:54;;;;;;;6.90;3.13;;;21.90;1.00;;;;;;5057190;28;21362;-76
2022/06/17 08:30:24;;;;;;;12.87;3.40;;;22.00;1.00;;;;;;5060543;28;20570;-76
2022/06/17 08:32:53;;;;;;;6.23;3.17;;;22.00;1.00;;;;;;5053022;28;20483;-77
2022/06/17 08:35:23;;;;;;;7.60;3.50;;;22.10;1.00;;;;;;5057744;28;20456;-76
2022/06/17 08:37:54;;;;;;;5.87;3.00;;;22.10;1.00;;;;;;5057906;28;20567;-77
2022/06/17 08:40:39;;;;;;;6.10;2.60;;;22.20;1.00;;;;;;5060004;28;20521;-77
2022/06/17 08:43:32;;;;;;;6.03;3.40;;;22.30;1.00;;;;;;5060294;28;20550;-76
2022/06/17 08:46:11;;;;;;;7.60;3.30;;;22.30;1.00;;;;;;5058509;28;20458;-80
2022/06/17 08:48:55;;;;;;;7.43;2.90;;;22.40;1.00;;;;;;5062912;28;21347;-79
2022/06/17 08:51:45;;;;;;;7.97;3.07;;;22.50;1.00;;;;;;5061024;28;20939;-81
2022/06/17 08:54:25;;;;;;;5.60;3.30;;;22.60;1.00;;;;;;5061387;28;20451;-81
2022/06/17 08:57:00;;;;;;;5.77;2.77;;;22.80;1.00;;;;;;5061472;28;20455;-81
2022/06/17 08:59:40;;;;;;;5.20;2.53;;;22.90;1.00;;;;;;5057578;28;20559;-81
2022/06/17 09:02:19;;;;;;;4.70;2.30;;;23.10;1.00;;;;;;5064403;28;21812;-80
2022/06/17 09:05:04;;;;;;;6.70;3.00;;;23.00;1.00;;;;;;5061563;28;20463;-81
2022/06/17 09:07:40;;;;;;;4.50;2.73;;;23.20;1.00;;;;;;5062867;28;20586;-80
2022/06/17 09:10:32;;;;;;;3.93;1.97;;;23.40;1.00;;;;;;5061653;28;20481;-78
2022/06/17 09:13:11;;;;;;;4.80;2.20;;;23.40;1.00;;;;;;5060552;28;20443;-79
2022/06/17 09:15:41;;;;;;;4.10;1.80;;;23.30;1.00;;;;;;5062023;28;20474;-78
2022/06/17 09:18:20;;;;;;;6.90;2.50;;;23.40;1.00;;;;;;5060653;28;20471;-79
2022/06/17 09:20:51;;;;;;;6.17;2.93;;;23.50;1.00;;;;;;5061734;28;20602;-78
2022/06/17 09:23:30;;;;;;;4.87;2.73;;;23.60;1.00;;;;;;5059377;28;21234;-80
2022/06/17 09:26:00;;;;;;;4.50;2.10;;;23.70;1.00;;;;;;5051129;28;20541;-78
2022/06/17 09:28:33;;;;;;;5.40;2.27;;;23.80;1.00;;;;;;5060872;28;20514;-78
2022/06/17 09:31:05;;;;;;;5.53;3.20;;;23.80;1.00;;;;;;5054394;28;20489;-79
2022/06/17 09:33:38;;;;;;;4.80;2.03;;;24.00;1.00;;;;;;5060003;28;20450;-80
2022/06/17 09:36:11;;;;;;;3.40;1.97;;;24.20;1.00;;;;;;5056937;28;20455;-80
2022/06/17 09:38:44;;;;;;;4.83;2.00;;;24.60;1.00;;;;;;5062991;28;20584;-80
2022/06/17 09:41:19;;;;;;;4.73;2.33;;;25.30;1.00;;;;;;5052606;28;20577;-81
2022/06/17 09:43:52;;;;;;;3.60;2.10;;;26.70;1.00;;;;;;5052000;28;20941;-80
2022/06/17 09:46:23;;;;;;;4.53;2.70;;;28.30;1.00;;;;;;5058863;28;20561;-81
2022/06/17 09:49:00;;;;;;;4.97;2.57;;;29.70;1.00;;;;;;5050548;28;20554;-80
2022/06/17 09:51:32;;;;;;;5.67;2.37;;;30.70;1.00;;;;;;5057102;28;20470;-79
2022/06/17 09:54:06;;;;;;;4.70;2.60;;;31.70;1.00;;;;;;5060985;28;20450;-80
2022/06/17 09:56:42;;;;;;;5.50;2.27;;;31.90;1.00;;;;;;5059690;28;20470;-80
2022/06/17 09:59:17;;;;;;;3.40;1.80;;;32.80;1.00;;;;;;5057260;28;20470;-80
2022/06/17 10:01:45;;;;;;;4.10;1.43;;;33.30;1.00;;;;;;5056461;28;20478;-78
2022/06/17 10:04:14;;;;;;;4.07;1.63;;;33.60;1.00;;;;;;5057815;28;20521;-77
2022/06/17 10:06:50;;;;;;;2.47;1.60;;;34.10;1.00;;;;;;5060841;28;20467;-79
2022/06/17 10:09:34;;;;;;;3.77;2.10;;;34.50;1.00;;;;;;5057363;28;20457;-80
2022/06/17 10:12:09;;;;;;;2.40;1.60;;;34.80;1.00;;;;;;5060259;28;20586;-80
2022/06/17 10:15:03;;;;;;;2.60;1.83;;;35.30;1.00;;;;;;5063039;28;20466;-79
2022/06/17 10:20:39;;;;;;;5.20;1.83;;;35.70;1.00;;;;;;5065894;28;20555;-78
2022/06/17 10:23:16;;;;;;;4.37;2.77;;;36.10;1.00;;;;;;5055950;28;20456;-78
2022/06/17 10:25:57;;;;;;;2.97;2.17;;;36.40;1.00;;;;;;5062542;28;20474;-79
2022/06/17 10:28:57;;;;;;;3.60;2.20;;;36.30;1.00;;;;;;5059196;28;20478;-79
2022/06/17 10:31:34;;;;;;;4.17;1.90;;;36.70;1.00;;;;;;5062750;28;20487;-79
2022/06/17 10:34:06;;;;;;;4.67;2.40;;;36.80;1.00;;;;;;5060236;28;20475;-80
2022/06/17 10:36:33;;;;;;;2.67;1.87;;;37.20;1.00;;;;;;5062150;28;20605;-79
2022/06/17 10:39:03;;;;;;;4.33;1.80;;;37.80;1.00;;;;;;5056525;28;20503;-78
2022/06/17 10:41:31;;;;;;;4.30;2.00;;;38.00;1.00;;;;;;5061703;28;20464;-79
2022/06/17 10:44:01;;;;;;;3.30;1.40;;;38.10;1.00;;;;;;5059996;28;20916;-78
2022/06/17 10:46:32;;;;;;;3.10;2.10;;;38.30;1.00;;;;;;5061786;28;20569;-78
2022/06/17 10:49:08;;;;;;;2.00;1.33;;;37.70;1.00;;;;;;5058812;28;20529;-81
2022/06/17 10:51:37;;;;;;;3.53;1.47;;;37.70;1.00;;;;;;5063955;28;20456;-80
2022/06/17 10:54:13;;;;;;;3.87;2.13;;;37.60;1.00;;;;;;5055511;28;20543;-78
2022/06/17 10:56:48;;;;;;;4.47;1.77;;;37.40;1.00;;;;;;5056270;28;20459;-76
2022/06/17 10:59:31;;;;;;;3.43;1.83;;;37.60;1.00;;;;;;5054837;28;20471;-76
2022/06/17 11:01:58;;;;;;;2.50;1.80;;;37.70;1.00;;;;;;5049928;28;20456;-77
2022/06/17 11:04:27;;;;;;;3.30;2.17;;;37.80;1.00;;;;;;5045712;28;20467;-75
2022/06/17 11:06:59;;;;;;;4.13;1.70;;;38.20;1.00;;;;;;5057897;28;20713;-75
2022/06/17 11:09:29;;;;;;;4.13;2.87;;;38.50;1.00;;;;;;5055622;28;21299;-76
2022/06/17 11:12:04;;;;;;;5.60;2.70;;;38.40;1.00;;;;;;5053481;28;20460;-75
2022/06/17 11:14:37;;;;;;;4.07;1.73;;;38.30;1.00;;;;;;5042021;28;20581;-77
2022/06/17 11:17:13;;;;;;;1.87;1.67;;;38.40;1.00;;;;;;5055516;28;20452;-77
2022/06/17 11:19:41;;;;;;;3.30;1.60;;;38.40;1.00;;;;;;5059063;28;20451;-78
2022/06/17 11:22:20;;;;;;;6.70;2.03;;;38.70;1.00;;;;;;5056381;28;20460;-77
2022/06/17 11:24:53;;;;;;;3.20;1.57;;;38.90;1.00;;;;;;5058855;28;20477;-76
2022/06/17 11:27:32;;;;;;;5.60;3.63;;;38.90;1.00;;;;;;5060163;28;20950;-77
2022/06/17 11:30:22;;;;;;;4.07;2.27;;;38.70;1.00;;;;;;5058669;28;20507;-76
2022/06/17 11:32:51;;;;;;;4.90;2.17;;;38.60;1.00;;;;;;5055730;28;20607;-78
2022/06/17 11:35:26;;;;;;;2.80;1.80;;;38.70;1.00;;;;;;5059329;28;20479;-79
2022/06/17 11:37:55;;;;;;;5.47;2.57;;;38.20;1.00;;;;;;5059494;28;20457;-76
2022/06/17 11:40:25;;;;;;;1.97;1.70;;;38.30;1.00;;;;;;5061155;28;20545;-76
2022/06/17 11:42:54;;;;;;;4.33;3.07;;;39.10;1.00;;;;;;5059293;28;20464;-79
2022/06/17 11:45:31;;;;;;;3.47;1.50;;;39.80;1.00;;;;;;5060732;28;20547;-78
2022/06/17 11:48:06;;;;;;;4.50;3.10;;;40.60;1.00;;;;;;5050958;28;20465;-78
2022/06/17 11:50:36;;;;;;;2.17;1.10;;;41.10;1.00;;;;;;5056573;28;20482;-78
2022/06/17 11:53:08;;;;;;;2.50;1.53;;;41.30;1.00;;;;;;5061005;28;20439;-80
2022/06/17 11:55:42;;;;;;;1.60;1.27;;;41.30;1.00;;;;;;5058468;28;20486;-81
2022/06/17 11:58:11;;;;;;;1.70;1.30;;;41.10;1.00;;;;;;5058510;28;20509;-79
2022/06/17 12:00:47;;;;;;;2.00;1.70;;;40.90;1.00;;;;;;5062267;28;20947;-78
2022/06/17 12:03:16;;;;;;;2.37;1.40;;;40.70;1.00;;;;;;5061583;28;21049;-77
2022/06/17 12:05:55;;;;;;;1.87;1.67;;;40.90;1.00;;;;;;5056532;28;20483;-76
2022/06/17 12:08:26;;;;;;;2.27;1.30;;;40.90;1.00;;;;;;5061492;28;21688;-78
2022/06/17 12:10:56;;;;;;;3.30;1.90;;;40.90;1.00;;;;;;5064337;28;20483;-77
2022/06/17 12:13:27;;;;;;;1.60;1.43;;;41.00;1.00;;;;;;5065207;28;20519;-79
2022/06/17 12:16:00;;;;;;;3.87;2.20;;;41.00;1.00;;;;;;5061567;28;20495;-77
2022/06/17 12:18:31;;;;;;;2.77;1.50;;;40.40;1.00;;;;;;5062802;28;20451;-77
2022/06/17 12:21:18;;;;;;;2.70;1.70;;;40.10;1.00;;;;;;5061121;28;20472;-78
2022/06/17 12:23:57;;;;;;;4.20;1.73;;;39.90;1.00;;;;;;5060698;28;20451;-77
2022/06/17 12:26:31;;;;;;;4.13;2.50;;;39.50;1.00;;;;;;5061798;28;20466;-79
2022/06/17 12:29:10;;;;;;;2.90;1.67;;;39.90;1.00;;;;;;5060205;28;20475;-79
2022/06/17 12:31:47;;;;;;;2.30;1.27;;;40.10;1.00;;;;;;5073087;28;20538;-79
2022/06/17 12:34:27;;;;;;;3.43;2.00;;;40.50;1.00;;;;;;5054713;28;20458;-77
2022/06/17 12:36:57;;;;;;;3.37;1.20;;;40.50;1.00;;;;;;5055426;28;20462;-77
2022/06/17 12:39:33;;;;;;;3.47;1.80;;;40.20;1.00;;;;;;5059225;28;20479;-78
2022/06/17 12:42:05;;;;;;;1.70;1.30;;;40.40;1.00;;;;;;5054655;28;20560;-78
2022/06/17 12:44:42;;;;;;;3.50;1.67;;;40.50;1.00;;;;;;5059165;28;23221;-77
2022/06/17 12:47:20;;;;;;;3.37;1.40;;;40.50;1.00;;;;;;5053493;28;20578;-77
2022/06/17 12:55:54;;;;;;;2.10;1.10;;;40.80;1.00;;;;;;5050721;28;20955;-76
2022/06/17 12:58:30;;;;;;;2.30;1.30;;;40.50;1.00;;;;;;5057769;28;20474;-79
2022/06/17 13:01:00;;;;;;;1.90;1.80;;;39.20;1.00;;;;;;5052221;28;20455;-77
2022/06/17 13:03:59;;;;;;;1.60;1.30;;;38.80;1.00;;;;;;5055968;28;20517;-78
2022/06/17 13:06:35;;;;;;;2.37;1.60;;;38.70;1.00;;;;;;5055891;28;20470;-77
2022/06/17 13:09:08;;;;;;;4.70;2.00;;;38.60;1.00;;;;;;5053789;28;20503;-77
2022/06/17 13:11:43;;;;;;;3.03;1.37;;;38.00;1.00;;;;;;5053678;28;21165;-77
2022/06/17 13:14:26;;;;;;;2.70;2.50;;;37.30;1.00;;;;;;5053780;28;20512;-76
2022/06/17 13:16:59;;;;;;;4.03;2.30;;;36.60;1.00;;;;;;5059115;28;20469;-76
2022/06/17 13:19:36;;;;;;;3.77;1.50;;;36.50;1.00;;;;;;5053552;28;20998;-78
2022/06/17 13:22:10;;;;;;;8.03;2.27;;;36.80;1.00;;;;;;5057459;28;20451;-78
2022/06/17 13:24:43;;;;;;;1.87;1.10;;;37.30;1.00;;;;;;5057128;28;20498;-77
2022/06/17 13:27:16;;;;;;;1.77;1.60;;;37.10;1.00;;;;;;5056616;28;21843;-77
2022/06/17 13:29:53;;;;;;;2.03;1.33;;;36.80;1.00;;;;;;5058267;28;20488;-77
2022/06/17 13:32:24;;;;;;;1.33;1.23;;;36.20;1.00;;;;;;5055987;28;20476;-77